sensor_id;sensor_type;location;lat;lon;timestamp;pressure;altitude;pressure_sealevel;temperature;humidity
80180;BME280;69505;52.134;5.438;2023-07-31T00:01:12;101124.34;;;14.69;100.00
80180;BME280;69505;52.134;5.438;2023-07-31T00:03:39;101116.03;;;14.72;100.00
80180;BME280;69505;52.134;5.438;2023-07-31T00:06:06;101118.69;;;14.72;100.00
80180;BME280;69505;52.134;5.438;2023-07-31T00:08:32;101115.59;;;14.67;100.00
80180;BME280;69505;52.134;5.438;2023-07-31T00:10:59;101114.59;;;14.68;100.00
80180;BME280;69505;52.134;5.438;2023-07-31T00:13:25;101104.63;;;14.70;100.00
80180;BME280;69505;52.134;5.438;2023-07-31T00:15:52;101097.31;;;14.72;100.00
80180;BME280;69505;52.134;5.438;2023-07-31T00:18:19;101086.34;;;14.75;100.00
80180;BME280;69505;52.134;5.438;2023-07-31T00:20:45;101084.25;;;14.78;100.00
80180;BME280;69505;52.134;5.438;2023-07-31T00:23:12;101089.88;;;14.85;100.00
80180;BME280;69505;52.134;5.438;2023-07-31T00:25:39;101082.41;;;14.89;100.00
80180;BME280;69505;52.134;5.438;2023-07-31T00:28:05;101091.28;;;14.89;100.00
80180;BME280;69505;52.134;5.438;2023-07-31T00:30:32;101077.22;;;14.87;100.00
80180;BME280;69505;52.134;5.438;2023-07-31T00:32:58;101078.63;;;14.91;100.00
80180;BME280;69505;52.134;5.438;2023-07-31T00:35:25;101079.59;;;14.90;100.00
80180;BME280;69505;52.134;5.438;2023-07-31T00:37:52;101080.88;;;14.96;100.00
80180;BME280;69505;52.134;5.438;2023-07-31T00:40:18;101084.38;;;14.96;100.00
80180;BME280;69505;52.134;5.438;2023-07-31T00:42:44;101076.09;;;14.99;100.00
80180;BME280;69505;52.134;5.438;2023-07-31T00:45:11;101076.50;;;15.05;100.00
80180;BME280;69505;52.134;5.438;2023-07-31T00:47:38;101075.94;;;15.11;100.00
80180;BME280;69505;52.134;5.438;2023-07-31T00:50:06;101069.03;;;15.18;100.00
80180;BME280;69505;52.134;5.438;2023-07-31T00:52:33;101069.31;;;15.25;100.00
80180;BME280;69505;52.134;5.438;2023-07-31T00:55:00;101058.13;;;15.39;100.00
80180;BME280;69505;52.134;5.438;2023-07-31T00:57:26;101068.00;;;15.48;100.00
80180;BME280;69505;52.134;5.438;2023-07-31T00:59:53;101059.38;;;15.54;100.00
80180;BME280;69505;52.134;5.438;2023-07-31T01:02:19;101056.53;;;15.56;100.00
80180;BME280;69505;52.134;5.438;2023-07-31T01:04:46;101057.94;;;15.60;100.00
80180;BME280;69505;52.134;5.438;2023-07-31T01:10:08;101059.22;;;15.75;100.00
80180;BME280;69505;52.134;5.438;2023-07-31T01:12:38;101058.78;;;15.80;100.00
80180;BME280;69505;52.134;5.438;2023-07-31T01:15:09;101048.75;;;15.82;100.00
80180;BME280;69505;52.134;5.438;2023-07-31T01:17:42;101053.28;;;15.81;100.00
80180;BME280;69505;52.134;5.438;2023-07-31T01:20:17;101062.84;;;15.84;100.00
80180;BME280;69505;52.134;5.438;2023-07-31T01:28:20;101054.41;;;15.69;100.00
80180;BME280;69505;52.134;5.438;2023-07-31T01:30:50;101061.44;;;15.70;100.00
80180;BME280;69505;52.134;5.438;2023-07-31T01:33:17;101060.75;;;15.68;100.00
80180;BME280;69505;52.134;5.438;2023-07-31T01:35:45;101054.69;;;15.66;100.00
80180;BME280;69505;52.134;5.438;2023-07-31T01:38:12;101056.97;;;15.61;100.00
80180;BME280;69505;52.134;5.438;2023-07-31T01:40:41;101061.19;;;15.63;100.00
80180;BME280;69505;52.134;5.438;2023-07-31T01:43:08;101067.38;;;15.64;100.00
80180;BME280;69505;52.134;5.438;2023-07-31T01:45:34;101058.38;;;15.65;100.00
80180;BME280;69505;52.134;5.438;2023-07-31T01:48:01;101058.22;;;15.67;100.00
80180;BME280;69505;52.134;5.438;2023-07-31T01:50:28;101047.34;;;15.68;100.00
80180;BME280;69505;52.134;5.438;2023-07-31T01:52:54;101055.53;;;15.76;100.00
80180;BME280;69505;52.134;5.438;2023-07-31T01:55:21;101043.84;;;15.77;100.00
80180;BME280;69505;52.134;5.438;2023-07-31T01:57:47;101037.47;;;15.78;100.00
80180;BME280;69505;52.134;5.438;2023-07-31T02:00:15;101046.06;;;15.82;100.00
80180;BME280;69505;52.134;5.438;2023-07-31T02:02:41;101047.59;;;15.85;100.00
80180;BME280;69505;52.134;5.438;2023-07-31T02:05:08;101041.56;;;15.82;100.00
80180;BME280;69505;52.134;5.438;2023-07-31T02:07:34;101037.03;;;15.83;100.00
80180;BME280;69505;52.134;5.438;2023-07-31T02:10:01;101031.53;;;15.85;100.00
80180;BME280;69505;52.134;5.438;2023-07-31T02:12:27;101037.91;;;15.83;100.00
80180;BME280;69505;52.134;5.438;2023-07-31T02:14:57;101020.13;;;15.82;100.00
80180;BME280;69505;52.134;5.438;2023-07-31T02:17:24;101022.25;;;15.79;100.00
80180;BME280;69505;52.134;5.438;2023-07-31T02:19:50;101015.22;;;15.78;100.00
80180;BME280;69505;52.134;5.438;2023-07-31T02:22:17;101006.63;;;15.74;100.00
80180;BME280;69505;52.134;5.438;2023-07-31T02:24:44;100996.31;;;15.70;100.00
80180;BME280;69505;52.134;5.438;2023-07-31T02:27:11;101005.94;;;15.72;100.00
80180;BME280;69505;52.134;5.438;2023-07-31T02:29:37;101006.22;;;15.69;100.00
80180;BME280;69505;52.134;5.438;2023-07-31T02:32:04;101004.13;;;15.73;100.00
80180;BME280;69505;52.134;5.438;2023-07-31T02:34:31;101011.28;;;15.72;100.00
80180;BME280;69505;52.134;5.438;2023-07-31T02:36:57;101001.53;;;15.71;100.00
80180;BME280;69505;52.134;5.438;2023-07-31T02:39:24;101001.53;;;15.71;100.00
80180;BME280;69505;52.134;5.438;2023-07-31T02:41:50;101001.53;;;15.71;100.00
80180;BME280;69505;52.134;5.438;2023-07-31T02:44:17;101008.75;;;15.71;100.00
80180;BME280;69505;52.134;5.438;2023-07-31T02:46:43;101004.22;;;15.71;100.00
80180;BME280;69505;52.134;5.438;2023-07-31T02:49:10;101011.41;;;15.71;100.00
80180;BME280;69505;52.134;5.438;2023-07-31T02:51:36;101004.38;;;15.70;100.00
80180;BME280;69505;52.134;5.438;2023-07-31T02:54:03;100999.00;;;15.70;100.00
80180;BME280;69505;52.134;5.438;2023-07-31T02:56:29;100988.16;;;15.71;100.00
80180;BME280;69505;52.134;5.438;2023-07-31T02:58:56;100994.38;;;15.72;100.00
80180;BME280;69505;52.134;5.438;2023-07-31T03:01:23;100981.00;;;15.72;100.00
80180;BME280;69505;52.134;5.438;2023-07-31T03:03:50;100982.81;;;15.71;100.00
80180;BME280;69505;52.134;5.438;2023-07-31T03:06:16;100978.31;;;15.72;100.00
80180;BME280;69505;52.134;5.438;2023-07-31T03:08:43;100991.81;;;15.70;100.00
80180;BME280;69505;52.134;5.438;2023-07-31T03:11:09;100995.34;;;15.71;100.00
80180;BME280;69505;52.134;5.438;2023-07-31T03:13:36;100990.97;;;15.70;100.00
80180;BME280;69505;52.134;5.438;2023-07-31T03:16:02;100988.16;;;15.71;100.00
80180;BME280;69505;52.134;5.438;2023-07-31T03:18:29;100985.63;;;15.70;100.00
80180;BME280;69505;52.134;5.438;2023-07-31T03:20:56;100988.16;;;15.71;100.00
80180;BME280;69505;52.134;5.438;2023-07-31T03:23:22;100988.16;;;15.71;100.00
80180;BME280;69505;52.134;5.438;2023-07-31T03:26:00;100987.31;;;15.71;100.00
80180;BME280;69505;52.134;5.438;2023-07-31T03:28:26;100982.38;;;15.66;100.00
80180;BME280;69505;52.134;5.438;2023-07-31T03:30:53;100981.41;;;15.67;100.00
80180;BME280;69505;52.134;5.438;2023-07-31T03:33:20;100979.69;;;15.66;100.00
80180;BME280;69505;52.134;5.438;2023-07-31T03:35:46;100982.56;;;15.65;100.00
80180;BME280;69505;52.134;5.438;2023-07-31T03:38:13;100982.56;;;15.65;100.00
80180;BME280;69505;52.134;5.438;2023-07-31T03:40:40;100974.53;;;15.65;100.00
80180;BME280;69505;52.134;5.438;2023-07-31T03:43:06;100978.31;;;15.62;100.00
80180;BME280;69505;52.134;5.438;2023-07-31T03:45:33;100981.16;;;15.60;100.00
80180;BME280;69505;52.134;5.438;2023-07-31T03:48:00;100973.25;;;15.59;100.00
80180;BME280;69505;52.134;5.438;2023-07-31T03:50:26;100977.63;;;15.60;100.00
80180;BME280;69505;52.134;5.438;2023-07-31T03:52:53;100974.25;;;15.58;100.00
80180;BME280;69505;52.134;5.438;2023-07-31T03:55:19;100976.91;;;15.58;100.00
80180;BME280;69505;52.134;5.438;2023-07-31T03:57:48;100969.88;;;15.57;100.00
80180;BME280;69505;52.134;5.438;2023-07-31T04:00:14;100978.06;;;15.55;100.00
80180;BME280;69505;52.134;5.438;2023-07-31T04:02:41;100966.38;;;15.56;100.00
80180;BME280;69505;52.134;5.438;2023-07-31T04:05:08;100967.50;;;15.54;100.00
80180;BME280;69505;52.134;5.438;2023-07-31T04:07:34;100972.19;;;15.52;100.00
80180;BME280;69505;52.134;5.438;2023-07-31T04:10:01;100958.94;;;15.50;100.00
80180;BME280;69505;52.134;5.438;2023-07-31T04:12:27;100960.22;;;15.46;100.00
80180;BME280;69505;52.134;5.438;2023-07-31T04:14:54;100954.72;;;15.48;100.00
80180;BME280;69505;52.134;5.438;2023-07-31T04:17:20;100951.63;;;15.42;100.00
80180;BME280;69505;52.134;5.438;2023-07-31T04:19:47;100941.75;;;15.43;100.00
80180;BME280;69505;52.134;5.438;2023-07-31T04:22:13;100943.59;;;15.42;100.00
80180;BME280;69505;52.134;5.438;2023-07-31T04:24:40;100940.38;;;15.39;100.00
80180;BME280;69505;52.134;5.438;2023-07-31T04:27:06;100931.22;;;15.41;100.00
80180;BME280;69505;52.134;5.438;2023-07-31T04:29:33;100935.19;;;15.37;100.00
80180;BME280;69505;52.134;5.438;2023-07-31T04:32:00;100932.50;;;15.37;100.00
80180;BME280;69505;52.134;5.438;2023-07-31T04:34:26;100941.38;;;15.38;100.00
80180;BME280;69505;52.134;5.438;2023-07-31T04:36:53;100935.72;;;15.41;100.00
80180;BME280;69505;52.134;5.438;2023-07-31T04:39:19;100936.72;;;15.40;100.00
80180;BME280;69505;52.134;5.438;2023-07-31T04:41:46;100949.09;;;15.41;100.00
80180;BME280;69505;52.134;5.438;2023-07-31T04:44:12;100947.28;;;15.41;100.00
80180;BME280;69505;52.134;5.438;2023-07-31T04:46:39;100946.41;;;15.41;100.00
80180;BME280;69505;52.134;5.438;2023-07-31T04:49:06;100937.84;;;15.37;100.00
80180;BME280;69505;52.134;5.438;2023-07-31T04:51:33;100942.19;;;15.38;100.00
80180;BME280;69505;52.134;5.438;2023-07-31T04:54:00;100932.50;;;15.37;100.00
80180;BME280;69505;52.134;5.438;2023-07-31T04:56:26;100938.69;;;15.38;100.00
80180;BME280;69505;52.134;5.438;2023-07-31T04:58:53;100932.50;;;15.37;100.00
80180;BME280;69505;52.134;5.438;2023-07-31T05:01:19;100924.47;;;15.37;100.00
80180;BME280;69505;52.134;5.438;2023-07-31T05:03:46;100918.44;;;15.35;100.00
80180;BME280;69505;52.134;5.438;2023-07-31T05:06:13;100914.19;;;15.33;100.00
80180;BME280;69505;52.134;5.438;2023-07-31T05:08:41;100921.38;;;15.32;100.00
80180;BME280;69505;52.134;5.438;2023-07-31T05:11:08;100910.66;;;15.32;100.00
80180;BME280;69505;52.134;5.438;2023-07-31T05:13:34;100917.56;;;15.35;100.00
80180;BME280;69505;52.134;5.438;2023-07-31T05:16:01;100914.19;;;15.33;100.00
80180;BME280;69505;52.134;5.438;2023-07-31T05:18:29;100910.66;;;15.32;100.00
80180;BME280;69505;52.134;5.438;2023-07-31T05:20:55;100909.69;;;15.33;100.00
80180;BME280;69505;52.134;5.438;2023-07-31T05:23:22;100912.50;;;15.32;100.00
80180;BME280;69505;52.134;5.438;2023-07-31T05:25:48;100911.69;;;15.31;100.00
80180;BME280;69505;52.134;5.438;2023-07-31T05:28:15;100907.59;;;15.27;100.00
80180;BME280;69505;52.134;5.438;2023-07-31T05:30:41;100903.22;;;15.26;100.00
80180;BME280;69505;52.134;5.438;2023-07-31T05:33:08;100909.44;;;15.27;100.00
80180;BME280;69505;52.134;5.438;2023-07-31T05:35:38;100904.94;;;15.27;100.00
80180;BME280;69505;52.134;5.438;2023-07-31T05:38:05;100908.56;;;15.26;100.00
80180;BME280;69505;52.134;5.438;2023-07-31T05:40:33;100901.56;;;15.25;100.00
80180;BME280;69505;52.134;5.438;2023-07-31T05:42:59;100897.19;;;15.24;100.00
80180;BME280;69505;52.134;5.438;2023-07-31T05:45:26;100892.84;;;15.23;100.00
80180;BME280;69505;52.134;5.438;2023-07-31T05:47:53;100886.34;;;15.26;100.00
80180;BME280;69505;52.134;5.438;2023-07-31T05:50:19;100888.03;;;15.27;100.00
80180;BME280;69505;52.134;5.438;2023-07-31T05:52:46;100884.34;;;15.28;100.00
80180;BME280;69505;52.134;5.438;2023-07-31T05:55:12;100877.16;;;15.28;100.00
80180;BME280;69505;52.134;5.438;2023-07-31T05:57:39;100874.81;;;15.25;100.00
80180;BME280;69505;52.134;5.438;2023-07-31T06:00:06;100875.34;;;15.29;100.00
80180;BME280;69505;52.134;5.438;2023-07-31T06:02:33;100872.13;;;15.25;100.00
80180;BME280;69505;52.134;5.438;2023-07-31T06:05:04;100864.09;;;15.25;100.00
80180;BME280;69505;52.134;5.438;2023-07-31T06:07:32;100869.81;;;15.30;100.00
80180;BME280;69505;52.134;5.438;2023-07-31T06:09:59;100862.03;;;15.37;100.00
80180;BME280;69505;52.134;5.438;2023-07-31T06:12:32;100864.91;;;15.35;100.00
80180;BME280;69505;52.134;5.438;2023-07-31T06:14:59;100862.03;;;15.37;100.00
80180;BME280;69505;52.134;5.438;2023-07-31T06:17:25;100869.25;;;15.36;100.00
80180;BME280;69505;52.134;5.438;2023-07-31T06:19:52;100860.38;;;15.36;100.00
80180;BME280;69505;52.134;5.438;2023-07-31T06:22:19;100859.53;;;15.35;100.00
80180;BME280;69505;52.134;5.438;2023-07-31T06:24:46;100854.56;;;15.40;100.00
80180;BME280;69505;52.134;5.438;2023-07-31T06:27:13;100840.63;;;15.37;100.00
80180;BME280;69505;52.134;5.438;2023-07-31T06:29:39;100858.63;;;15.45;100.00
80180;BME280;69505;52.134;5.438;2023-07-31T06:32:07;100846.25;;;15.43;100.00
80180;BME280;69505;52.134;5.438;2023-07-31T06:34:33;100847.94;;;15.45;100.00
80180;BME280;69505;52.134;5.438;2023-07-31T06:37:00;100844.69;;;15.41;100.00
80180;BME280;69505;52.134;5.438;2023-07-31T06:39:27;100841.59;;;15.46;100.00
80180;BME280;69505;52.134;5.438;2023-07-31T06:41:53;100837.63;;;15.50;100.00
80180;BME280;69505;52.134;5.438;2023-07-31T06:44:20;100831.25;;;15.51;100.00
80180;BME280;69505;52.134;5.438;2023-07-31T06:46:47;100828.00;;;15.57;100.00
80180;BME280;69505;52.134;5.438;2023-07-31T06:49:13;100826.16;;;15.57;100.00
80180;BME280;69505;52.134;5.438;2023-07-31T06:51:42;100830.06;;;15.63;100.00
80180;BME280;69505;52.134;5.438;2023-07-31T06:54:10;100822.72;;;15.65;100.00
80180;BME280;69505;52.134;5.438;2023-07-31T06:56:37;100821.44;;;15.69;100.00
80180;BME280;69505;52.134;5.438;2023-07-31T06:59:06;100817.38;;;15.65;100.00
80180;BME280;69505;52.134;5.438;2023-07-31T07:01:33;100820.16;;;15.73;100.00
80180;BME280;69505;52.134;5.438;2023-07-31T07:04:00;100830.97;;;15.81;100.00
80180;BME280;69505;52.134;5.438;2023-07-31T07:06:26;100814.88;;;15.81;100.00
80180;BME280;69505;52.134;5.438;2023-07-31T07:08:53;100817.84;;;15.78;100.00
80180;BME280;69505;52.134;5.438;2023-07-31T07:11:19;100822.22;;;15.79;100.00
80180;BME280;69505;52.134;5.438;2023-07-31T07:13:46;100816.69;;;15.81;100.00
80180;BME280;69505;52.134;5.438;2023-07-31T07:16:13;100816.41;;;15.84;100.00
80180;BME280;69505;52.134;5.438;2023-07-31T07:18:39;100808.22;;;15.86;100.00
80180;BME280;69505;52.134;5.438;2023-07-31T07:21:19;100809.59;;;15.90;100.00
80180;BME280;69505;52.134;5.438;2023-07-31T07:23:46;100807.63;;;15.92;100.00
80180;BME280;69505;52.134;5.438;2023-07-31T07:26:13;100803.63;;;15.96;100.00
80180;BME280;69505;52.134;5.438;2023-07-31T07:28:39;100816.03;;;15.97;100.00
80180;BME280;69505;52.134;5.438;2023-07-31T07:31:06;100806.97;;;15.98;100.00
80180;BME280;69505;52.134;5.438;2023-07-31T07:33:33;100804.47;;;15.96;100.00
80180;BME280;69505;52.134;5.438;2023-07-31T07:36:00;100806.81;;;15.99;100.00
80180;BME280;69505;52.134;5.438;2023-07-31T07:38:28;100804.69;;;16.03;100.00
80180;BME280;69505;52.134;5.438;2023-07-31T07:40:54;100800.69;;;16.07;100.00
80180;BME280;69505;52.134;5.438;2023-07-31T07:43:21;100806.06;;;16.07;100.00
80180;BME280;69505;52.134;5.438;2023-07-31T07:45:47;100798.84;;;16.08;100.00
80180;BME280;69505;52.134;5.438;2023-07-31T07:48:14;100802.78;;;16.13;100.00
80180;BME280;69505;52.134;5.438;2023-07-31T07:50:41;100798.78;;;16.17;100.00
80180;BME280;69505;52.134;5.438;2023-07-31T07:53:07;100798.59;;;16.19;100.00
80180;BME280;69505;52.134;5.438;2023-07-31T07:55:35;100794.09;;;16.19;100.00
80180;BME280;69505;52.134;5.438;2023-07-31T07:58:02;100796.16;;;16.26;100.00
80180;BME280;69505;52.134;5.438;2023-07-31T08:00:28;100787.50;;;16.32;100.00
80180;BME280;69505;52.134;5.438;2023-07-31T08:02:55;100792.00;;;16.31;100.00
80180;BME280;69505;52.134;5.438;2023-07-31T08:05:24;100791.69;;;16.34;100.00
80180;BME280;69505;52.134;5.438;2023-07-31T08:07:50;100783.31;;;16.37;100.00
80180;BME280;69505;52.134;5.438;2023-07-31T08:10:17;100787.75;;;16.47;100.00
80180;BME280;69505;52.134;5.438;2023-07-31T08:12:43;100787.38;;;16.41;100.00
80180;BME280;69505;52.134;5.438;2023-07-31T08:15:10;100780.22;;;16.50;100.00
80180;BME280;69505;52.134;5.438;2023-07-31T08:17:37;100781.09;;;16.51;100.00
80180;BME280;69505;52.134;5.438;2023-07-31T08:20:04;100777.38;;;16.52;100.00
80180;BME280;69505;52.134;5.438;2023-07-31T08:22:31;100774.84;;;16.50;100.00
80180;BME280;69505;52.134;5.438;2023-07-31T08:24:57;100775.94;;;16.57;100.00
80180;BME280;69505;52.134;5.438;2023-07-31T08:27:24;100773.63;;;16.71;100.00
80180;BME280;69505;52.134;5.438;2023-07-31T08:29:52;100769.59;;;16.67;100.00
80180;BME280;69505;52.134;5.438;2023-07-31T08:32:19;100773.28;;;16.66;100.00
80180;BME280;69505;52.134;5.438;2023-07-31T08:34:45;100769.34;;;16.78;100.00
80180;BME280;69505;52.134;5.438;2023-07-31T08:37:12;100767.34;;;16.80;100.00
80180;BME280;69505;52.134;5.438;2023-07-31T08:39:38;100772.00;;;16.78;100.00
80180;BME280;69505;52.134;5.438;2023-07-31T08:42:09;100757.47;;;16.80;100.00
80180;BME280;69505;52.134;5.438;2023-07-31T08:44:36;100769.38;;;16.86;100.00
80180;BME280;69505;52.134;5.438;2023-07-31T08:47:04;100767.06;;;16.91;100.00
80180;BME280;69505;52.134;5.438;2023-07-31T08:49:31;100766.09;;;17.00;100.00
80180;BME280;69505;52.134;5.438;2023-07-31T08:51:59;100763.25;;;17.02;100.00
80180;BME280;69505;52.134;5.438;2023-07-31T08:54:26;100762.09;;;17.13;100.00
80180;BME280;69505;52.134;5.438;2023-07-31T08:56:57;100762.09;;;17.13;100.00
80180;BME280;69505;52.134;5.438;2023-07-31T08:59:29;100771.84;;;17.14;100.00
80180;BME280;69505;52.134;5.438;2023-07-31T09:02:00;100776.53;;;17.12;100.00
80180;BME280;69505;52.134;5.438;2023-07-31T09:04:30;100763.66;;;17.23;100.00
80180;BME280;69505;52.134;5.438;2023-07-31T09:07:00;100767.50;;;17.21;100.00
80180;BME280;69505;52.134;5.438;2023-07-31T09:09:28;100768.03;;;17.24;100.00
80180;BME280;69505;52.134;5.438;2023-07-31T09:11:55;100774.06;;;17.27;100.00
80180;BME280;69505;52.134;5.438;2023-07-31T09:14:22;100778.28;;;17.37;100.00
80180;BME280;69505;52.134;5.438;2023-07-31T09:16:57;100770.53;;;17.34;100.00
80180;BME280;69505;52.134;5.438;2023-07-31T09:19:33;100768.06;;;17.41;100.00
80180;BME280;69505;52.134;5.438;2023-07-31T09:22:00;100763.53;;;17.41;100.00
80180;BME280;69505;52.134;5.438;2023-07-31T09:24:29;100753.75;;;17.32;100.00
80180;BME280;69505;52.134;5.438;2023-07-31T09:26:58;100757.13;;;17.26;100.00
80180;BME280;69505;52.134;5.438;2023-07-31T09:29:26;100744.38;;;17.20;100.00
80180;BME280;69505;52.134;5.438;2023-07-31T09:31:54;100757.97;;;17.27;100.00
80180;BME280;69505;52.134;5.438;2023-07-31T09:34:29;100759.13;;;17.32;100.00
80180;BME280;69505;52.134;5.438;2023-07-31T09:36:58;100759.47;;;17.29;100.00
80180;BME280;69505;52.134;5.438;2023-07-31T09:39:27;100759.47;;;17.29;100.00
80180;BME280;69505;52.134;5.438;2023-07-31T09:41:55;100756.28;;;17.34;100.00
80180;BME280;69505;52.134;5.438;2023-07-31T09:44:37;100747.56;;;17.32;100.00
80180;BME280;69505;52.134;5.438;2023-07-31T09:47:04;100757.13;;;17.34;100.00
80180;BME280;69505;52.134;5.438;2023-07-31T09:49:30;100745.41;;;17.43;100.00
80180;BME280;69505;52.134;5.438;2023-07-31T09:51:57;100746.78;;;17.56;100.00
80180;BME280;69505;52.134;5.438;2023-07-31T09:54:24;100739.72;;;17.71;100.00
80180;BME280;69505;52.134;5.438;2023-07-31T09:56:50;100739.22;;;17.76;100.00
80180;BME280;69505;52.134;5.438;2023-07-31T09:59:18;100746.13;;;17.95;100.00
80180;BME280;69505;52.134;5.438;2023-07-31T10:01:49;100749.84;;;17.85;100.00
80180;BME280;69505;52.134;5.438;2023-07-31T10:04:17;100744.47;;;17.85;100.00
80180;BME280;69505;52.134;5.438;2023-07-31T10:06:49;100734.38;;;17.96;99.81
80180;BME280;69505;52.134;5.438;2023-07-31T10:09:18;100739.75;;;18.04;98.71
80180;BME280;69505;52.134;5.438;2023-07-31T10:11:48;100729.66;;;18.14;98.60
80180;BME280;69505;52.134;5.438;2023-07-31T10:14:19;100739.03;;;18.18;98.52
80180;BME280;69505;52.134;5.438;2023-07-31T10:16:47;100738.06;;;17.95;97.75
80180;BME280;69505;52.134;5.438;2023-07-31T10:19:14;100748.47;;;17.81;99.25
80180;BME280;69505;52.134;5.438;2023-07-31T10:21:42;100741.41;;;17.80;99.21
80180;BME280;69505;52.134;5.438;2023-07-31T10:24:09;100744.78;;;17.82;99.34
80180;BME280;69505;52.134;5.438;2023-07-31T10:26:37;100743.44;;;17.95;100.00
80180;BME280;69505;52.134;5.438;2023-07-31T10:29:06;100742.63;;;17.94;99.45
80180;BME280;69505;52.134;5.438;2023-07-31T10:31:33;100746.47;;;17.83;99.75
80180;BME280;69505;52.134;5.438;2023-07-31T10:34:01;100744.28;;;17.71;99.30
80180;BME280;69505;52.134;5.438;2023-07-31T10:36:29;100750.47;;;17.63;99.44
80180;BME280;69505;52.134;5.438;2023-07-31T10:38:56;100749.63;;;17.71;100.00
80180;BME280;69505;52.134;5.438;2023-07-31T10:41:32;100745.09;;;17.79;99.87
80180;BME280;69505;52.134;5.438;2023-07-31T10:44:00;100751.50;;;17.87;99.29
80180;BME280;69505;52.134;5.438;2023-07-31T10:46:30;100738.06;;;17.95;99.44
80180;BME280;69505;52.134;5.438;2023-07-31T10:48:58;100740.44;;;17.98;98.94
80180;BME280;69505;52.134;5.438;2023-07-31T10:51:33;100737.91;;;18.04;98.84
80180;BME280;69505;52.134;5.438;2023-07-31T10:54:15;100741.59;;;18.12;99.05
80180;BME280;69505;52.134;5.438;2023-07-31T10:56:45;100738.38;;;18.24;99.29
80180;BME280;69505;52.134;5.438;2023-07-31T10:59:13;100742.91;;;18.24;99.42
80180;BME280;69505;52.134;5.438;2023-07-31T11:01:53;100736.03;;;18.30;99.47
80180;BME280;69505;52.134;5.438;2023-07-31T11:04:25;100731.31;;;18.23;98.61
80180;BME280;69505;52.134;5.438;2023-07-31T11:06:59;100741.06;;;18.16;97.68
80180;BME280;69505;52.134;5.438;2023-07-31T11:09:31;100744.47;;;18.10;98.75
80180;BME280;69505;52.134;5.438;2023-07-31T11:11:59;100741.06;;;18.16;98.70
80180;BME280;69505;52.134;5.438;2023-07-31T11:14:26;100744.78;;;18.15;98.81
80180;BME280;69505;52.134;5.438;2023-07-31T11:16:53;100736.03;;;18.21;99.38
80180;BME280;69505;52.134;5.438;2023-07-31T11:19:26;100740.06;;;18.17;99.31
80180;BME280;69505;52.134;5.438;2023-07-31T11:21:52;100749.47;;;18.21;98.79
80180;BME280;69505;52.134;5.438;2023-07-31T11:24:20;100734.38;;;18.12;98.96
80180;BME280;69505;52.134;5.438;2023-07-31T11:26:53;100741.94;;;18.17;99.40
80180;BME280;69505;52.134;5.438;2023-07-31T11:29:20;100735.06;;;18.14;99.41
80180;BME280;69505;52.134;5.438;2023-07-31T11:31:47;100735.06;;;18.06;99.02
80180;BME280;69505;52.134;5.438;2023-07-31T11:34:15;100733.00;;;18.16;99.92
80180;BME280;69505;52.134;5.438;2023-07-31T11:36:55;100721.59;;;18.14;99.81
80180;BME280;69505;52.134;5.438;2023-07-31T11:39:25;100736.06;;;18.05;99.00
80180;BME280;69505;52.134;5.438;2023-07-31T11:41:58;100736.06;;;18.05;98.93
80180;BME280;69505;52.134;5.438;2023-07-31T11:44:25;100732.19;;;17.99;99.58
80180;BME280;69505;52.134;5.438;2023-07-31T11:46:56;100734.38;;;17.96;100.00
80180;BME280;69505;52.134;5.438;2023-07-31T11:49:23;100729.84;;;17.88;100.00
80180;BME280;69505;52.134;5.438;2023-07-31T11:51:50;100732.22;;;17.91;100.00
80180;BME280;69505;52.134;5.438;2023-07-31T11:54:17;100734.38;;;17.96;100.00
80180;BME280;69505;52.134;5.438;2023-07-31T11:56:43;100729.00;;;17.96;100.00
80180;BME280;69505;52.134;5.438;2023-07-31T11:59:10;100725.66;;;17.85;100.00
80180;BME280;69505;52.134;5.438;2023-07-31T12:01:39;100723.97;;;17.84;100.00
80180;BME280;69505;52.134;5.438;2023-07-31T12:04:06;100718.25;;;17.79;100.00
80180;BME280;69505;52.134;5.438;2023-07-31T12:06:36;100727.97;;;17.80;100.00
80180;BME280;69505;52.134;5.438;2023-07-31T12:09:04;100727.00;;;17.90;100.00
80180;BME280;69505;52.134;5.438;2023-07-31T12:11:42;100725.97;;;17.91;99.76
80180;BME280;69505;52.134;5.438;2023-07-31T12:14:19;100734.88;;;17.99;100.00
80180;BME280;69505;52.134;5.438;2023-07-31T12:16:46;100728.34;;;18.02;99.46
80180;BME280;69505;52.134;5.438;2023-07-31T12:19:13;100730.66;;;18.13;99.74
80180;BME280;69505;52.134;5.438;2023-07-31T12:21:39;100720.88;;;18.29;99.55
80180;BME280;69505;52.134;5.438;2023-07-31T12:24:06;100722.06;;;18.34;99.76
80180;BME280;69505;52.134;5.438;2023-07-31T12:26:35;100721.06;;;18.27;99.27
80180;BME280;69505;52.134;5.438;2023-07-31T12:29:07;100712.16;;;18.18;98.80
80180;BME280;69505;52.134;5.438;2023-07-31T12:31:34;100714.16;;;18.24;99.42
80180;BME280;69505;52.134;5.438;2023-07-31T12:34:00;100705.63;;;18.21;98.86
80180;BME280;69505;52.134;5.438;2023-07-31T12:36:29;100696.34;;;18.32;99.18
80180;BME280;69505;52.134;5.438;2023-07-31T12:38:58;100698.38;;;18.30;98.80
80180;BME280;69505;52.134;5.438;2023-07-31T12:41:26;100697.69;;;18.36;99.24
80180;BME280;69505;52.134;5.438;2023-07-31T12:43:52;100692.31;;;18.28;98.78
80180;BME280;69505;52.134;5.438;2023-07-31T12:46:20;100684.59;;;18.24;98.52
80180;BME280;69505;52.134;5.438;2023-07-31T12:48:47;100702.06;;;18.29;98.86
80180;BME280;69505;52.134;5.438;2023-07-31T12:51:13;100696.81;;;18.43;98.94
80180;BME280;69505;52.134;5.438;2023-07-31T12:53:40;100695.63;;;18.46;98.24